Centertown, Kentucky
Current Conditions -  °F | °C
As of 11:15 PM on Friday 21 Nov 2014 (Local Time) from K2I0 Reporting Station
Overcast Overcast  
Wind Chill: 45°   Ceiling: 8000
Heat Index: 45°   Visibility: 10mi
Dew Point: 24°   Wind: 0mph
Humidity: 43%   Direction: NA
Pressure: 30.33"   Gusts: NA
Location:  37.42°N, 87°W
Report Text: K2I0 220515Z AUTO 00000KT 10SM SCT060 SCT070 OVC080 07/M05 A3033 RMK AO2 T00711047
Loading
Personal Weather Stations






























Interactive Weather Map New forecast layout! Learn more

10-Day Weather Forecast

Advertisements
Track Severe Weather on mobile